createdAt,value
2023-05-02T00:02:33.068Z,18.65
2023-05-02T00:12:35.378Z,18.70
2023-05-02T00:22:37.849Z,20.23
2023-05-02T00:32:40.379Z,21.77
2023-05-02T00:42:42.445Z,21.13
2023-05-02T00:52:44.865Z,21.13
2023-05-02T01:03:22.952Z,22.70
2023-05-02T01:13:28.424Z,22.17
2023-05-02T01:24:11.007Z,21.95
2023-05-02T01:34:13.227Z,23.47
2023-05-02T01:44:17.077Z,24.50
2023-05-02T01:54:21.261Z,25.97
2023-05-02T02:04:23.825Z,27.87
2023-05-02T02:14:27.852Z,27.93
2023-05-02T02:24:30.799Z,27.70
2023-05-02T02:34:32.912Z,26.73
2023-05-02T02:44:44.160Z,26.17
2023-05-02T02:55:00.977Z,22.73
2023-05-02T03:05:04.568Z,20.87
2023-05-02T03:15:30.119Z,21.70
2023-05-02T03:25:33.031Z,17.90
2023-05-02T03:35:35.149Z,18.03
2023-05-02T03:45:37.881Z,17.27
2023-05-02T03:55:40.855Z,16.10
2023-05-02T04:05:45.653Z,13.27
2023-05-02T04:15:50.269Z,13.43
2023-05-02T04:25:56.592Z,13.83
2023-05-02T04:36:07.160Z,12.23
2023-05-02T04:46:10.582Z,12.60
2023-05-02T04:56:14.658Z,12.03
2023-05-02T05:06:17.624Z,12.10
2023-05-02T05:16:20.637Z,12.77
2023-05-02T05:26:25.195Z,13.63
2023-05-02T05:36:27.800Z,14.00
2023-05-02T05:46:29.934Z,13.20
2023-05-02T05:56:33.011Z,6.00
2023-05-02T06:06:48.379Z,5.00
2023-05-02T06:16:50.634Z,4.13
2023-05-02T06:26:52.714Z,5.73
2023-05-02T06:36:57.873Z,3.40
2023-05-02T06:47:00.177Z,4.20
2023-05-02T06:57:02.959Z,2.63
2023-05-02T07:07:05.249Z,3.10
2023-05-02T07:17:07.393Z,2.10
2023-05-02T07:27:10.240Z,2.00
2023-05-02T07:37:12.343Z,4.60
2023-05-02T07:47:14.363Z,3.03
2023-05-02T07:57:16.529Z,1.30
2023-05-02T08:07:18.842Z,0.90
2023-05-02T08:17:21.839Z,1.30
2023-05-02T08:27:23.920Z,1.20
2023-05-02T08:37:26.157Z,2.10
2023-05-02T08:47:29.979Z,2.50
2023-05-02T08:57:32.179Z,2.60
2023-05-02T09:07:46.463Z,2.50
2023-05-02T09:17:48.988Z,3.10
2023-05-02T09:27:57.711Z,2.70
2023-05-02T09:37:59.798Z,2.83
2023-05-02T09:48:02.741Z,2.53
2023-05-02T09:58:05.863Z,2.60
2023-05-02T10:08:11.671Z,2.37
2023-05-02T10:18:15.959Z,1.63
2023-05-02T10:28:18.406Z,2.07
2023-05-02T10:38:22.514Z,2.35
2023-05-02T10:48:27.661Z,2.33
2023-05-02T10:58:31.303Z,2.10
2023-05-02T11:08:33.417Z,2.33
2023-05-02T11:19:01.031Z,2.22
2023-05-02T11:29:03.370Z,1.80
2023-05-02T11:39:19.109Z,2.23
2023-05-02T11:49:21.466Z,2.13
2023-05-02T11:59:23.505Z,1.90
2023-05-02T12:09:25.562Z,2.43
2023-05-02T12:19:27.864Z,1.90
2023-05-02T12:29:43.254Z,2.17
2023-05-02T12:39:45.384Z,2.30
2023-05-02T12:49:52.337Z,1.33
2023-05-02T12:59:54.697Z,1.50
2023-05-02T13:09:56.732Z,1.20
2023-05-02T13:20:01.928Z,1.88
2023-05-02T13:30:08.439Z,1.90
2023-05-02T13:40:11.984Z,1.90
2023-05-02T13:50:14.016Z,2.33
2023-05-02T14:00:16.903Z,2.07
2023-05-02T14:10:18.887Z,2.55
2023-05-02T14:20:23.347Z,2.38
2023-05-02T14:30:25.461Z,2.30
2023-05-02T14:40:27.578Z,2.90
2023-05-02T14:50:29.888Z,2.97
2023-05-02T15:00:34.745Z,3.20
2023-05-02T15:10:38.064Z,2.72
2023-05-02T15:20:40.100Z,3.50
2023-05-02T15:30:42.248Z,3.40
2023-05-02T15:40:44.304Z,3.83
2023-05-02T15:50:47.183Z,3.38
2023-05-02T16:00:51.721Z,3.75
2023-05-02T16:10:54.470Z,3.13
2023-05-02T16:20:59.624Z,3.33
2023-05-02T16:31:11.037Z,3.93
2023-05-02T16:41:13.443Z,3.50
2023-05-02T16:51:15.596Z,3.60
2023-05-02T17:01:17.719Z,3.15
2023-05-02T17:11:21.882Z,3.13
2023-05-02T17:21:24.262Z,2.55
2023-05-02T17:31:26.387Z,2.70
2023-05-02T17:41:28.620Z,3.33
2023-05-02T17:51:31.991Z,2.70
2023-05-02T18:01:34.092Z,3.33
2023-05-02T18:11:36.359Z,3.08
2023-05-02T18:21:38.422Z,3.30
2023-05-02T18:31:41.867Z,2.73
2023-05-02T18:41:44.168Z,3.15
2023-05-02T18:51:46.587Z,3.20
2023-05-02T19:01:48.693Z,3.57
2023-05-02T19:11:50.890Z,2.80
2023-05-02T19:21:53.231Z,3.03
2023-05-02T19:31:55.364Z,2.80
2023-05-02T19:41:57.507Z,2.47
2023-05-02T19:51:59.530Z,2.27
2023-05-02T20:02:02.762Z,2.00
2023-05-02T20:12:05.261Z,1.77
2023-05-02T20:22:07.281Z,1.30
2023-05-02T20:32:09.382Z,1.70
2023-05-02T20:42:11.690Z,1.80
2023-05-02T20:52:15.422Z,2.00
2023-05-02T21:02:17.572Z,1.93
2023-05-02T21:12:19.605Z,1.90
2023-05-02T21:22:22.008Z,2.20
2023-05-02T21:32:25.815Z,2.67
2023-05-02T21:42:28.048Z,2.37
2023-05-02T21:52:31.648Z,2.90
2023-05-02T22:02:33.780Z,2.67
2023-05-02T22:12:35.843Z,2.97
2023-05-02T22:22:38.106Z,3.07
2023-05-02T22:32:41.259Z,2.90
2023-05-02T22:42:43.328Z,3.10
2023-05-02T22:52:46.492Z,3.40
2023-05-02T23:02:48.599Z,3.87
2023-05-02T23:12:50.773Z,3.63
2023-05-02T23:22:52.790Z,3.20
2023-05-02T23:32:54.864Z,3.40
2023-05-02T23:42:57.091Z,3.07
2023-05-02T23:52:59.349Z,3.40
